Waidhofen an der Ybbs, Austria
Current Conditions -  °F | °C
As of 1:50 PM on Thursday 29 Jan 2015 (Local Time) from LOWL Reporting Station
Broken Clouds Broken Clouds  
Wind Chill: 32°   Ceiling: 8000
Heat Index: 36°   Visibility: 6mi
Dew Point: 30°   Wind: 5mph
Humidity: 81%   Direction: 260°W
Pressure: 29.47"   Gusts: NA
Location:  47.96°N, 14.77°E
Report Text: LOWL 291150Z 26004KT 230V300 9999 FEW014 SCT035 BKN080 02/M01 Q0998 R08/29//95 NOSIG
Loading
Personal Weather Stations






























Interactive Weather Map New forecast layout! Learn more

10-Day Weather Forecast

Advertisements
Track Severe Weather on mobile